sensor_id;sensor_type;location;lat;lon;timestamp;temperature;humidity
10431;DHT22;5262;59.958;17.726;2023-11-21T00:01:02;0.30;99.90
10431;DHT22;5262;59.958;17.726;2023-11-21T00:03:30;0.30;99.90
10431;DHT22;5262;59.958;17.726;2023-11-21T00:05:55;0.20;99.90
10431;DHT22;5262;59.958;17.726;2023-11-21T00:08:21;0.30;99.90
10431;DHT22;5262;59.958;17.726;2023-11-21T00:10:47;0.30;99.90
10431;DHT22;5262;59.958;17.726;2023-11-21T00:13:13;0.30;99.90
10431;DHT22;5262;59.958;17.726;2023-11-21T00:15:39;0.30;99.90
10431;DHT22;5262;59.958;17.726;2023-11-21T00:18:06;0.30;99.90
10431;DHT22;5262;59.958;17.726;2023-11-21T00:20:31;0.30;99.90
10431;DHT22;5262;59.958;17.726;2023-11-21T00:22:57;0.20;99.90
10431;DHT22;5262;59.958;17.726;2023-11-21T00:25:24;0.20;99.90
10431;DHT22;5262;59.958;17.726;2023-11-21T00:27:50;0.20;99.90
10431;DHT22;5262;59.958;17.726;2023-11-21T00:30:16;0.30;99.90
10431;DHT22;5262;59.958;17.726;2023-11-21T00:32:42;0.30;99.90
10431;DHT22;5262;59.958;17.726;2023-11-21T00:35:08;0.20;99.90
10431;DHT22;5262;59.958;17.726;2023-11-21T00:37:34;0.20;99.90
10431;DHT22;5262;59.958;17.726;2023-11-21T00:40:00;0.20;99.90
10431;DHT22;5262;59.958;17.726;2023-11-21T00:42:25;0.20;99.90
10431;DHT22;5262;59.958;17.726;2023-11-21T00:44:51;0.20;99.90
10431;DHT22;5262;59.958;17.726;2023-11-21T00:47:17;0.20;99.90
10431;DHT22;5262;59.958;17.726;2023-11-21T00:49:42;0.20;99.90
10431;DHT22;5262;59.958;17.726;2023-11-21T00:52:08;0.20;99.90
10431;DHT22;5262;59.958;17.726;2023-11-21T00:54:34;0.10;99.90
10431;DHT22;5262;59.958;17.726;2023-11-21T00:57:00;0.10;99.90
10431;DHT22;5262;59.958;17.726;2023-11-21T00:59:25;0.10;99.90
10431;DHT22;5262;59.958;17.726;2023-11-21T01:01:51;0.00;99.90
10431;DHT22;5262;59.958;17.726;2023-11-21T01:04:17;0.10;99.90
10431;DHT22;5262;59.958;17.726;2023-11-21T01:06:42;0.00;99.90
10431;DHT22;5262;59.958;17.726;2023-11-21T01:09:08;0.00;99.90
10431;DHT22;5262;59.958;17.726;2023-11-21T01:11:37;0.00;99.90
10431;DHT22;5262;59.958;17.726;2023-11-21T01:14:04;0.00;99.90
10431;DHT22;5262;59.958;17.726;2023-11-21T01:16:30;-0.10;99.90
10431;DHT22;5262;59.958;17.726;2023-11-21T01:18:58;-0.10;99.90
10431;DHT22;5262;59.958;17.726;2023-11-21T01:21:24;-0.10;99.90
10431;DHT22;5262;59.958;17.726;2023-11-21T01:23:50;-0.10;99.90
10431;DHT22;5262;59.958;17.726;2023-11-21T01:26:16;-0.10;99.90
10431;DHT22;5262;59.958;17.726;2023-11-21T01:28:41;-0.10;99.90
10431;DHT22;5262;59.958;17.726;2023-11-21T01:31:07;-0.10;99.90
10431;DHT22;5262;59.958;17.726;2023-11-21T01:33:33;-0.20;99.90
10431;DHT22;5262;59.958;17.726;2023-11-21T01:35:58;-0.20;99.90
10431;DHT22;5262;59.958;17.726;2023-11-21T01:38:25;-0.20;99.90
10431;DHT22;5262;59.958;17.726;2023-11-21T01:40:51;-0.20;99.90
10431;DHT22;5262;59.958;17.726;2023-11-21T01:43:16;-0.20;99.90
10431;DHT22;5262;59.958;17.726;2023-11-21T01:45:42;-0.20;99.90
10431;DHT22;5262;59.958;17.726;2023-11-21T01:48:10;-0.20;99.90
10431;DHT22;5262;59.958;17.726;2023-11-21T01:50:36;-0.20;99.90
10431;DHT22;5262;59.958;17.726;2023-11-21T01:53:02;-0.20;99.90
10431;DHT22;5262;59.958;17.726;2023-11-21T01:55:28;-0.20;99.90
10431;DHT22;5262;59.958;17.726;2023-11-21T01:57:55;-0.20;99.90
10431;DHT22;5262;59.958;17.726;2023-11-21T02:00:22;-0.20;99.90
10431;DHT22;5262;59.958;17.726;2023-11-21T02:02:49;-0.30;99.90
10431;DHT22;5262;59.958;17.726;2023-11-21T02:05:16;-0.30;99.90
10431;DHT22;5262;59.958;17.726;2023-11-21T02:07:45;-0.30;99.90
10431;DHT22;5262;59.958;17.726;2023-11-21T02:10:14;-0.30;99.90
10431;DHT22;5262;59.958;17.726;2023-11-21T02:12:44;-0.30;99.90
10431;DHT22;5262;59.958;17.726;2023-11-21T02:15:14;-0.30;99.90
10431;DHT22;5262;59.958;17.726;2023-11-21T02:17:46;-0.30;99.90
10431;DHT22;5262;59.958;17.726;2023-11-21T02:20:13;-0.30;99.90
10431;DHT22;5262;59.958;17.726;2023-11-21T02:22:48;-0.40;99.90
10431;DHT22;5262;59.958;17.726;2023-11-21T02:25:14;-0.40;99.90
10431;DHT22;5262;59.958;17.726;2023-11-21T02:27:39;-0.40;99.90
10431;DHT22;5262;59.958;17.726;2023-11-21T02:30:05;-0.40;99.90
10431;DHT22;5262;59.958;17.726;2023-11-21T02:32:33;-0.50;99.90
10431;DHT22;5262;59.958;17.726;2023-11-21T02:34:58;-0.40;99.90
10431;DHT22;5262;59.958;17.726;2023-11-21T02:37:27;-0.50;99.90
10431;DHT22;5262;59.958;17.726;2023-11-21T02:39:52;-0.50;99.90
10431;DHT22;5262;59.958;17.726;2023-11-21T02:42:18;-0.60;99.90
10431;DHT22;5262;59.958;17.726;2023-11-21T02:44:44;-0.60;99.90
10431;DHT22;5262;59.958;17.726;2023-11-21T02:47:10;-0.60;99.90
10431;DHT22;5262;59.958;17.726;2023-11-21T02:49:35;-0.70;99.90
10431;DHT22;5262;59.958;17.726;2023-11-21T02:52:01;-0.70;99.90
10431;DHT22;5262;59.958;17.726;2023-11-21T02:54:27;-0.80;99.90
10431;DHT22;5262;59.958;17.726;2023-11-21T02:56:53;-0.80;99.90
10431;DHT22;5262;59.958;17.726;2023-11-21T02:59:18;-0.80;99.90
10431;DHT22;5262;59.958;17.726;2023-11-21T03:01:45;-0.90;99.90
10431;DHT22;5262;59.958;17.726;2023-11-21T03:04:11;-0.80;99.90
10431;DHT22;5262;59.958;17.726;2023-11-21T03:06:43;-0.80;99.90
10431;DHT22;5262;59.958;17.726;2023-11-21T03:09:09;-0.90;99.90
10431;DHT22;5262;59.958;17.726;2023-11-21T03:11:35;-1.00;99.90
10431;DHT22;5262;59.958;17.726;2023-11-21T03:14:00;-1.00;99.90
10431;DHT22;5262;59.958;17.726;2023-11-21T03:16:26;-0.90;99.90
10431;DHT22;5262;59.958;17.726;2023-11-21T03:18:52;-1.00;99.90
10431;DHT22;5262;59.958;17.726;2023-11-21T03:21:17;-1.00;99.90
10431;DHT22;5262;59.958;17.726;2023-11-21T03:23:43;-1.00;99.90
10431;DHT22;5262;59.958;17.726;2023-11-21T03:26:12;-1.10;99.90
10431;DHT22;5262;59.958;17.726;2023-11-21T03:28:38;-1.20;99.90
10431;DHT22;5262;59.958;17.726;2023-11-21T03:31:04;-1.20;99.90
10431;DHT22;5262;59.958;17.726;2023-11-21T03:33:32;-1.20;99.90
10431;DHT22;5262;59.958;17.726;2023-11-21T03:35:57;-1.20;99.90
10431;DHT22;5262;59.958;17.726;2023-11-21T03:38:23;-1.20;99.90
10431;DHT22;5262;59.958;17.726;2023-11-21T03:40:49;-1.20;99.90
10431;DHT22;5262;59.958;17.726;2023-11-21T03:43:16;-1.20;99.90
10431;DHT22;5262;59.958;17.726;2023-11-21T03:45:41;-1.40;99.90
10431;DHT22;5262;59.958;17.726;2023-11-21T03:48:07;-1.30;99.90
10431;DHT22;5262;59.958;17.726;2023-11-21T03:50:34;-1.40;99.90
10431;DHT22;5262;59.958;17.726;2023-11-21T03:53:00;-1.40;99.90
10431;DHT22;5262;59.958;17.726;2023-11-21T03:55:26;-1.40;99.90
10431;DHT22;5262;59.958;17.726;2023-11-21T03:57:52;-1.40;99.90
10431;DHT22;5262;59.958;17.726;2023-11-21T04:00:18;-1.50;99.90
10431;DHT22;5262;59.958;17.726;2023-11-21T04:02:45;-1.40;99.90
10431;DHT22;5262;59.958;17.726;2023-11-21T04:05:11;-1.40;99.90
10431;DHT22;5262;59.958;17.726;2023-11-21T04:07:37;-1.50;99.90
10431;DHT22;5262;59.958;17.726;2023-11-21T04:10:05;-1.50;99.90
10431;DHT22;5262;59.958;17.726;2023-11-21T04:12:33;-1.60;99.90
10431;DHT22;5262;59.958;17.726;2023-11-21T04:14:59;-1.60;99.90
10431;DHT22;5262;59.958;17.726;2023-11-21T04:17:24;-1.60;99.90
10431;DHT22;5262;59.958;17.726;2023-11-21T04:19:50;-1.50;99.90
10431;DHT22;5262;59.958;17.726;2023-11-21T04:22:16;-1.60;99.90
10431;DHT22;5262;59.958;17.726;2023-11-21T04:24:41;-1.60;99.90
10431;DHT22;5262;59.958;17.726;2023-11-21T04:27:07;-1.60;99.90
10431;DHT22;5262;59.958;17.726;2023-11-21T04:29:33;-1.60;99.90
10431;DHT22;5262;59.958;17.726;2023-11-21T04:31:58;-1.60;99.90
10431;DHT22;5262;59.958;17.726;2023-11-21T04:34:24;-1.60;99.90
10431;DHT22;5262;59.958;17.726;2023-11-21T04:36:50;-1.70;99.90
10431;DHT22;5262;59.958;17.726;2023-11-21T04:39:16;-1.70;99.90
10431;DHT22;5262;59.958;17.726;2023-11-21T04:41:41;-1.70;99.90
10431;DHT22;5262;59.958;17.726;2023-11-21T04:44:08;-1.70;99.90
10431;DHT22;5262;59.958;17.726;2023-11-21T04:46:33;-1.70;99.90
10431;DHT22;5262;59.958;17.726;2023-11-21T04:48:59;-1.60;99.90
10431;DHT22;5262;59.958;17.726;2023-11-21T04:51:25;-1.70;99.90
10431;DHT22;5262;59.958;17.726;2023-11-21T04:53:50;-1.70;99.90
10431;DHT22;5262;59.958;17.726;2023-11-21T04:56:16;-1.70;99.90
10431;DHT22;5262;59.958;17.726;2023-11-21T04:58:42;-1.70;99.90
10431;DHT22;5262;59.958;17.726;2023-11-21T05:01:08;-1.70;99.90
10431;DHT22;5262;59.958;17.726;2023-11-21T05:03:34;-1.70;99.90
10431;DHT22;5262;59.958;17.726;2023-11-21T05:06:00;-1.70;99.90
10431;DHT22;5262;59.958;17.726;2023-11-21T05:08:26;-1.80;99.90
10431;DHT22;5262;59.958;17.726;2023-11-21T05:10:52;-1.70;99.90
10431;DHT22;5262;59.958;17.726;2023-11-21T05:13:19;-1.70;99.90
10431;DHT22;5262;59.958;17.726;2023-11-21T05:15:45;-1.70;99.90
10431;DHT22;5262;59.958;17.726;2023-11-21T05:18:11;-1.80;99.90
10431;DHT22;5262;59.958;17.726;2023-11-21T05:20:39;-1.80;99.90
10431;DHT22;5262;59.958;17.726;2023-11-21T05:23:06;-1.70;99.90
10431;DHT22;5262;59.958;17.726;2023-11-21T05:25:33;-1.80;99.90
10431;DHT22;5262;59.958;17.726;2023-11-21T05:27:59;-1.80;99.90
10431;DHT22;5262;59.958;17.726;2023-11-21T05:30:27;-1.80;99.90
10431;DHT22;5262;59.958;17.726;2023-11-21T05:32:53;-1.80;99.90
10431;DHT22;5262;59.958;17.726;2023-11-21T05:35:19;-1.80;99.90
10431;DHT22;5262;59.958;17.726;2023-11-21T05:37:45;-1.80;99.90
10431;DHT22;5262;59.958;17.726;2023-11-21T05:40:11;-1.80;99.90
10431;DHT22;5262;59.958;17.726;2023-11-21T05:42:39;-1.80;99.90
10431;DHT22;5262;59.958;17.726;2023-11-21T05:45:06;-1.80;99.90
10431;DHT22;5262;59.958;17.726;2023-11-21T05:47:41;-1.90;99.90
10431;DHT22;5262;59.958;17.726;2023-11-21T05:50:11;-1.90;99.90
10431;DHT22;5262;59.958;17.726;2023-11-21T05:52:40;-1.90;99.90
10431;DHT22;5262;59.958;17.726;2023-11-21T05:55:06;-2.00;99.90
10431;DHT22;5262;59.958;17.726;2023-11-21T05:57:35;-1.90;99.90
10431;DHT22;5262;59.958;17.726;2023-11-21T06:02:39;-1.90;99.90
10431;DHT22;5262;59.958;17.726;2023-11-21T06:05:09;-2.00;99.90
10431;DHT22;5262;59.958;17.726;2023-11-21T06:07:34;-1.90;99.90
10431;DHT22;5262;59.958;17.726;2023-11-21T06:10:02;-1.90;99.90
10431;DHT22;5262;59.958;17.726;2023-11-21T06:12:31;-1.90;99.90
10431;DHT22;5262;59.958;17.726;2023-11-21T06:15:04;-1.90;99.90
10431;DHT22;5262;59.958;17.726;2023-11-21T06:17:31;-2.00;99.90
10431;DHT22;5262;59.958;17.726;2023-11-21T06:19:57;-2.10;99.90
10431;DHT22;5262;59.958;17.726;2023-11-21T06:22:22;-2.00;99.90
10431;DHT22;5262;59.958;17.726;2023-11-21T06:24:48;-2.00;99.90
10431;DHT22;5262;59.958;17.726;2023-11-21T06:27:14;-2.10;99.90
10431;DHT22;5262;59.958;17.726;2023-11-21T06:29:39;-2.00;99.90
10431;DHT22;5262;59.958;17.726;2023-11-21T06:32:07;-2.10;99.90
10431;DHT22;5262;59.958;17.726;2023-11-21T06:34:33;-2.00;99.90
10431;DHT22;5262;59.958;17.726;2023-11-21T06:36:59;-2.00;99.90
10431;DHT22;5262;59.958;17.726;2023-11-21T06:39:25;-2.10;99.90
10431;DHT22;5262;59.958;17.726;2023-11-21T06:41:50;-2.10;99.90
10431;DHT22;5262;59.958;17.726;2023-11-21T06:44:16;-2.10;99.90
10431;DHT22;5262;59.958;17.726;2023-11-21T06:46:42;-2.10;99.90
10431;DHT22;5262;59.958;17.726;2023-11-21T06:49:08;-2.10;99.90
10431;DHT22;5262;59.958;17.726;2023-11-21T06:51:34;-2.10;99.90
10431;DHT22;5262;59.958;17.726;2023-11-21T06:53:59;-2.10;99.90
10431;DHT22;5262;59.958;17.726;2023-11-21T06:56:25;-2.10;99.90
10431;DHT22;5262;59.958;17.726;2023-11-21T06:58:51;-2.10;99.90
10431;DHT22;5262;59.958;17.726;2023-11-21T07:01:19;-2.10;99.90
10431;DHT22;5262;59.958;17.726;2023-11-21T07:03:45;-2.10;99.90
10431;DHT22;5262;59.958;17.726;2023-11-21T07:06:11;-2.10;99.90
10431;DHT22;5262;59.958;17.726;2023-11-21T07:08:37;-2.10;99.90
10431;DHT22;5262;59.958;17.726;2023-11-21T07:11:03;-2.10;99.90
10431;DHT22;5262;59.958;17.726;2023-11-21T07:13:29;-2.10;99.90
10431;DHT22;5262;59.958;17.726;2023-11-21T07:15:56;-2.10;99.90
10431;DHT22;5262;59.958;17.726;2023-11-21T07:18:21;-2.10;99.90
10431;DHT22;5262;59.958;17.726;2023-11-21T07:20:48;-2.10;99.90
10431;DHT22;5262;59.958;17.726;2023-11-21T07:23:14;-2.00;99.90
10431;DHT22;5262;59.958;17.726;2023-11-21T07:25:41;-2.10;99.90
10431;DHT22;5262;59.958;17.726;2023-11-21T07:28:08;-2.10;99.90
10431;DHT22;5262;59.958;17.726;2023-11-21T07:30:34;-2.00;99.90
10431;DHT22;5262;59.958;17.726;2023-11-21T07:33:00;-2.10;99.90
10431;DHT22;5262;59.958;17.726;2023-11-21T07:35:25;-2.20;99.90
10431;DHT22;5262;59.958;17.726;2023-11-21T07:37:52;-2.10;99.90
10431;DHT22;5262;59.958;17.726;2023-11-21T07:40:17;-2.10;99.90
10431;DHT22;5262;59.958;17.726;2023-11-21T07:42:43;-2.10;99.90
10431;DHT22;5262;59.958;17.726;2023-11-21T07:45:09;-2.10;99.90
10431;DHT22;5262;59.958;17.726;2023-11-21T07:47:34;-2.10;99.90
10431;DHT22;5262;59.958;17.726;2023-11-21T07:50:02;-2.10;99.90
10431;DHT22;5262;59.958;17.726;2023-11-21T07:52:28;-2.10;99.90
10431;DHT22;5262;59.958;17.726;2023-11-21T07:54:54;-2.10;99.90
10431;DHT22;5262;59.958;17.726;2023-11-21T07:57:19;-2.20;99.90
10431;DHT22;5262;59.958;17.726;2023-11-21T07:59:45;-2.20;99.90
10431;DHT22;5262;59.958;17.726;2023-11-21T08:02:10;-2.20;99.90
10431;DHT22;5262;59.958;17.726;2023-11-21T08:04:36;-2.30;99.90
10431;DHT22;5262;59.958;17.726;2023-11-21T08:07:02;-2.20;99.90
10431;DHT22;5262;59.958;17.726;2023-11-21T08:09:29;-2.20;99.90
10431;DHT22;5262;59.958;17.726;2023-11-21T08:11:55;-2.20;99.90
10431;DHT22;5262;59.958;17.726;2023-11-21T08:14:22;-2.30;99.90
10431;DHT22;5262;59.958;17.726;2023-11-21T08:16:50;-2.30;99.90
10431;DHT22;5262;59.958;17.726;2023-11-21T08:19:16;-2.20;99.90
10431;DHT22;5262;59.958;17.726;2023-11-21T08:21:43;-2.30;99.90
10431;DHT22;5262;59.958;17.726;2023-11-21T08:24:10;-2.40;99.90
10431;DHT22;5262;59.958;17.726;2023-11-21T08:26:37;-2.40;99.90
10431;DHT22;5262;59.958;17.726;2023-11-21T08:29:03;-2.40;99.90
10431;DHT22;5262;59.958;17.726;2023-11-21T08:31:28;-2.30;99.90
10431;DHT22;5262;59.958;17.726;2023-11-21T08:33:55;-2.40;99.90
10431;DHT22;5262;59.958;17.726;2023-11-21T08:36:25;-2.40;99.90
10431;DHT22;5262;59.958;17.726;2023-11-21T08:38:51;-2.40;99.90
10431;DHT22;5262;59.958;17.726;2023-11-21T08:41:22;-2.30;99.90
10431;DHT22;5262;59.958;17.726;2023-11-21T08:43:56;-2.30;99.90
10431;DHT22;5262;59.958;17.726;2023-11-21T08:46:26;-2.30;99.90
10431;DHT22;5262;59.958;17.726;2023-11-21T08:48:52;-2.20;99.90
10431;DHT22;5262;59.958;17.726;2023-11-21T08:51:18;-2.20;99.90
10431;DHT22;5262;59.958;17.726;2023-11-21T08:53:44;-2.30;99.90
10431;DHT22;5262;59.958;17.726;2023-11-21T08:56:13;-2.20;99.90
10431;DHT22;5262;59.958;17.726;2023-11-21T08:58:44;-2.20;99.90
10431;DHT22;5262;59.958;17.726;2023-11-21T09:01:09;-2.20;99.90
10431;DHT22;5262;59.958;17.726;2023-11-21T09:03:35;-2.30;99.90
10431;DHT22;5262;59.958;17.726;2023-11-21T09:06:00;-2.20;99.90
10431;DHT22;5262;59.958;17.726;2023-11-21T09:08:26;-2.20;99.90
10431;DHT22;5262;59.958;17.726;2023-11-21T09:10:53;-2.30;99.90
10431;DHT22;5262;59.958;17.726;2023-11-21T09:13:19;-2.20;99.90
10431;DHT22;5262;59.958;17.726;2023-11-21T09:15:45;-2.20;99.90
10431;DHT22;5262;59.958;17.726;2023-11-21T09:18:14;-2.20;99.90
10431;DHT22;5262;59.958;17.726;2023-11-21T09:20:46;-2.10;99.90
10431;DHT22;5262;59.958;17.726;2023-11-21T09:23:11;-2.20;99.90
10431;DHT22;5262;59.958;17.726;2023-11-21T09:25:37;-2.20;99.90
10431;DHT22;5262;59.958;17.726;2023-11-21T09:28:06;-2.10;99.90
10431;DHT22;5262;59.958;17.726;2023-11-21T09:30:35;-2.00;99.90
10431;DHT22;5262;59.958;17.726;2023-11-21T09:33:02;-2.00;99.90
10431;DHT22;5262;59.958;17.726;2023-11-21T09:35:27;-2.30;99.90
10431;DHT22;5262;59.958;17.726;2023-11-21T09:37:53;-2.10;99.90
10431;DHT22;5262;59.958;17.726;2023-11-21T09:40:21;-2.10;99.90
10431;DHT22;5262;59.958;17.726;2023-11-21T09:42:57;-2.10;99.90
10431;DHT22;5262;59.958;17.726;2023-11-21T09:45:27;-2.00;99.90
10431;DHT22;5262;59.958;17.726;2023-11-21T09:47:55;-1.80;99.90
10431;DHT22;5262;59.958;17.726;2023-11-21T09:50:21;-1.80;99.90
10431;DHT22;5262;59.958;17.726;2023-11-21T09:53:18;-1.70;99.90
10431;DHT22;5262;59.958;17.726;2023-11-21T09:55:48;-1.80;99.90
10431;DHT22;5262;59.958;17.726;2023-11-21T09:58:14;-1.70;99.90
10431;DHT22;5262;59.958;17.726;2023-11-21T10:00:48;-1.60;99.90
10431;DHT22;5262;59.958;17.726;2023-11-21T10:03:14;-1.60;99.90
10431;DHT22;5262;59.958;17.726;2023-11-21T10:05:42;-1.40;99.90
10431;DHT22;5262;59.958;17.726;2023-11-21T10:08:10;-1.40;99.90
10431;DHT22;5262;59.958;17.726;2023-11-21T10:10:37;-1.30;99.90
10431;DHT22;5262;59.958;17.726;2023-11-21T10:13:05;-1.10;99.90
10431;DHT22;5262;59.958;17.726;2023-11-21T10:15:34;-1.20;99.90
10431;DHT22;5262;59.958;17.726;2023-11-21T10:18:06;-1.30;99.90
10431;DHT22;5262;59.958;17.726;2023-11-21T10:20:33;-1.30;99.90
10431;DHT22;5262;59.958;17.726;2023-11-21T10:23:00;-1.20;99.90
10431;DHT22;5262;59.958;17.726;2023-11-21T10:25:29;-1.20;99.90
10431;DHT22;5262;59.958;17.726;2023-11-21T10:27:58;-1.10;99.90
10431;DHT22;5262;59.958;17.726;2023-11-21T10:30:33;-1.10;99.90
10431;DHT22;5262;59.958;17.726;2023-11-21T10:33:03;-1.10;99.90
10431;DHT22;5262;59.958;17.726;2023-11-21T10:35:45;-1.00;99.90
10431;DHT22;5262;59.958;17.726;2023-11-21T10:38:13;-1.00;99.90
10431;DHT22;5262;59.958;17.726;2023-11-21T10:40:40;-1.00;99.90
10431;DHT22;5262;59.958;17.726;2023-11-21T10:43:08;-0.70;99.90
10431;DHT22;5262;59.958;17.726;2023-11-21T10:45:39;-0.60;99.90
10431;DHT22;5262;59.958;17.726;2023-11-21T10:48:09;-0.60;99.90
10431;DHT22;5262;59.958;17.726;2023-11-21T10:50:37;-0.70;99.90
10431;DHT22;5262;59.958;17.726;2023-11-21T10:53:03;-0.80;99.90
10431;DHT22;5262;59.958;17.726;2023-11-21T10:55:30;-0.80;99.90
10431;DHT22;5262;59.958;17.726;2023-11-21T10:58:04;-0.60;99.90
10431;DHT22;5262;59.958;17.726;2023-11-21T11:00:32;-0.60;99.90
10431;DHT22;5262;59.958;17.726;2023-11-21T11:02:59;-0.60;99.90
10431;DHT22;5262;59.958;17.726;2023-11-21T11:05:27;-0.60;99.90
10431;DHT22;5262;59.958;17.726;2023-11-21T11:08:08;-0.60;99.90
10431;DHT22;5262;59.958;17.726;2023-11-21T11:10:37;-0.50;99.90
10431;DHT22;5262;59.958;17.726;2023-11-21T11:13:04;-0.70;99.90
10431;DHT22;5262;59.958;17.726;2023-11-21T11:15:32;-0.60;99.90
10431;DHT22;5262;59.958;17.726;2023-11-21T11:17:59;-0.70;99.90
10431;DHT22;5262;59.958;17.726;2023-11-21T11:20:29;-0.80;99.90
10431;DHT22;5262;59.958;17.726;2023-11-21T11:23:45;-0.80;99.90
10431;DHT22;5262;59.958;17.726;2023-11-21T11:28:21;-0.80;99.90
10431;DHT22;5262;59.958;17.726;2023-11-21T11:31:10;-0.80;99.90
10431;DHT22;5262;59.958;17.726;2023-11-21T11:34:07;-0.80;99.90
10431;DHT22;5262;59.958;17.726;2023-11-21T11:36:44;-0.90;99.90
10431;DHT22;5262;59.958;17.726;2023-11-21T11:41:56;-1.00;99.90
10431;DHT22;5262;59.958;17.726;2023-11-21T11:47:27;-1.00;99.90
10431;DHT22;5262;59.958;17.726;2023-11-21T11:55:00;-1.10;99.90
10431;DHT22;5262;59.958;17.726;2023-11-21T11:57:30;-1.10;99.90
10431;DHT22;5262;59.958;17.726;2023-11-21T12:00:20;-1.10;99.90
10431;DHT22;5262;59.958;17.726;2023-11-21T12:02:54;-1.20;99.90
10431;DHT22;5262;59.958;17.726;2023-11-21T12:05:22;-1.10;99.90
10431;DHT22;5262;59.958;17.726;2023-11-21T12:07:50;-1.20;99.90
10431;DHT22;5262;59.958;17.726;2023-11-21T12:10:21;-1.30;99.90
10431;DHT22;5262;59.958;17.726;2023-11-21T12:12:53;-1.30;99.90
10431;DHT22;5262;59.958;17.726;2023-11-21T12:15:19;-1.30;99.90
10431;DHT22;5262;59.958;17.726;2023-11-21T12:17:46;-1.40;99.90
10431;DHT22;5262;59.958;17.726;2023-11-21T12:20:16;-1.40;99.90
10431;DHT22;5262;59.958;17.726;2023-11-21T12:22:44;-1.50;99.90
10431;DHT22;5262;59.958;17.726;2023-11-21T12:25:13;-1.50;99.90
10431;DHT22;5262;59.958;17.726;2023-11-21T12:27:42;-1.50;99.90
10431;DHT22;5262;59.958;17.726;2023-11-21T12:30:09;-1.60;99.90
10431;DHT22;5262;59.958;17.726;2023-11-21T12:32:39;-1.60;99.90
10431;DHT22;5262;59.958;17.726;2023-11-21T12:35:06;-1.50;99.90
10431;DHT22;5262;59.958;17.726;2023-11-21T12:37:33;-1.60;99.90
10431;DHT22;5262;59.958;17.726;2023-11-21T12:39:58;-1.70;99.90
10431;DHT22;5262;59.958;17.726;2023-11-21T12:42:25;-1.60;99.90
10431;DHT22;5262;59.958;17.726;2023-11-21T12:45:10;-1.60;99.90
10431;DHT22;5262;59.958;17.726;2023-11-21T12:50:11;-1.60;99.90
10431;DHT22;5262;59.958;17.726;2023-11-21T12:52:45;-1.60;99.90
10431;DHT22;5262;59.958;17.726;2023-11-21T12:55:23;-1.60;99.90
10431;DHT22;5262;59.958;17.726;2023-11-21T12:57:53;-1.60;99.90
10431;DHT22;5262;59.958;17.726;2023-11-21T13:00:31;-1.50;99.90
10431;DHT22;5262;59.958;17.726;2023-11-21T13:02:58;-1.60;99.90
10431;DHT22;5262;59.958;17.726;2023-11-21T13:05:32;-1.50;99.90
10431;DHT22;5262;59.958;17.726;2023-11-21T13:08:00;-1.50;99.90
10431;DHT22;5262;59.958;17.726;2023-11-21T13:10:29;-1.50;99.90
10431;DHT22;5262;59.958;17.726;2023-11-21T13:12:58;-1.60;99.90
10431;DHT22;5262;59.958;17.726;2023-11-21T13:15:27;-1.60;99.90
10431;DHT22;5262;59.958;17.726;2023-11-21T13:17:54;-1.60;99.90
10431;DHT22;5262;59.958;17.726;2023-11-21T13:20:23;-1.60;99.90
10431;DHT22;5262;59.958;17.726;2023-11-21T13:22:53;-1.70;99.90
10431;DHT22;5262;59.958;17.726;2023-11-21T13:25:27;-1.70;99.90
10431;DHT22;5262;59.958;17.726;2023-11-21T13:27:59;-1.80;99.90
10431;DHT22;5262;59.958;17.726;2023-11-21T13:30:26;-1.70;99.90
10431;DHT22;5262;59.958;17.726;2023-11-21T13:32:56;-1.80;99.90
10431;DHT22;5262;59.958;17.726;2023-11-21T13:35:23;-1.80;99.90
10431;DHT22;5262;59.958;17.726;2023-11-21T13:38:12;-1.80;99.90
10431;DHT22;5262;59.958;17.726;2023-11-21T13:40:39;-1.90;99.90
10431;DHT22;5262;59.958;17.726;2023-11-21T13:43:12;-2.00;99.90
10431;DHT22;5262;59.958;17.726;2023-11-21T13:45:45;-2.10;99.90
10431;DHT22;5262;59.958;17.726;2023-11-21T13:48:12;-2.20;99.90
10431;DHT22;5262;59.958;17.726;2023-11-21T13:50:57;-2.30;99.90
10431;DHT22;5262;59.958;17.726;2023-11-21T13:53:36;-2.40;99.90
10431;DHT22;5262;59.958;17.726;2023-11-21T13:56:03;-2.50;99.90
10431;DHT22;5262;59.958;17.726;2023-11-21T13:58:29;-2.60;99.90
10431;DHT22;5262;59.958;17.726;2023-11-21T14:01:13;-2.60;99.90
10431;DHT22;5262;59.958;17.726;2023-11-21T14:04:01;-2.80;99.90
10431;DHT22;5262;59.958;17.726;2023-11-21T14:06:50;-2.70;99.90
10431;DHT22;5262;59.958;17.726;2023-11-21T14:09:23;-2.70;99.90
10431;DHT22;5262;59.958;17.726;2023-11-21T14:11:57;-2.60;99.90
10431;DHT22;5262;59.958;17.726;2023-11-21T14:14:27;-2.60;99.90
10431;DHT22;5262;59.958;17.726;2023-11-21T14:16:56;-2.50;99.90
10431;DHT22;5262;59.958;17.726;2023-11-21T14:19:24;-2.60;99.90
10431;DHT22;5262;59.958;17.726;2023-11-21T14:21:55;-2.60;99.90
10431;DHT22;5262;59.958;17.726;2023-11-21T14:24:21;-2.70;99.90
10431;DHT22;5262;59.958;17.726;2023-11-21T14:26:49;-2.80;99.90
10431;DHT22;5262;59.958;17.726;2023-11-21T14:29:18;-2.90;99.90
10431;DHT22;5262;59.958;17.726;2023-11-21T14:32:01;-3.00;99.90
10431;DHT22;5262;59.958;17.726;2023-11-21T14:34:27;-3.20;99.90
10431;DHT22;5262;59.958;17.726;2023-11-21T14:36:52;-3.20;99.90
10431;DHT22;5262;59.958;17.726;2023-11-21T14:39:18;-3.20;99.90
10431;DHT22;5262;59.958;17.726;2023-11-21T14:41:54;-3.10;99.90
10431;DHT22;5262;59.958;17.726;2023-11-21T14:44:28;-3.20;99.90
10431;DHT22;5262;59.958;17.726;2023-11-21T14:46:58;-3.10;99.90
10431;DHT22;5262;59.958;17.726;2023-11-21T14:49:24;-3.10;99.90
10431;DHT22;5262;59.958;17.726;2023-11-21T14:51:53;-3.10;99.90
10431;DHT22;5262;59.958;17.726;2023-11-21T14:54:32;-3.20;99.90
10431;DHT22;5262;59.958;17.726;2023-11-21T14:57:14;-3.30;99.90
10431;DHT22;5262;59.958;17.726;2023-11-21T14:59:49;-3.40;99.90
10431;DHT22;5262;59.958;17.726;2023-11-21T15:02:23;-3.50;99.90
10431;DHT22;5262;59.958;17.726;2023-11-21T15:05:08;-3.60;99.90
10431;DHT22;5262;59.958;17.726;2023-11-21T15:07:40;-3.70;99.90
10431;DHT22;5262;59.958;17.726;2023-11-21T15:10:07;-3.80;99.90
10431;DHT22;5262;59.958;17.726;2023-11-21T15:12:37;-3.90;99.90
10431;DHT22;5262;59.958;17.726;2023-11-21T15:15:05;-4.00;99.90
10431;DHT22;5262;59.958;17.726;2023-11-21T15:17:35;-4.10;99.90
10431;DHT22;5262;59.958;17.726;2023-11-21T15:20:02;-4.20;99.90
10431;DHT22;5262;59.958;17.726;2023-11-21T15:22:29;-4.30;99.90
10431;DHT22;5262;59.958;17.726;2023-11-21T15:24:55;-4.40;99.90
10431;DHT22;5262;59.958;17.726;2023-11-21T15:27:21;-4.40;99.90
10431;DHT22;5262;59.958;17.726;2023-11-21T15:29:47;-4.40;99.90
10431;DHT22;5262;59.958;17.726;2023-11-21T15:32:15;-4.50;99.90
10431;DHT22;5262;59.958;17.726;2023-11-21T15:34:40;-4.50;99.90
10431;DHT22;5262;59.958;17.726;2023-11-21T15:37:07;-4.60;99.90
10431;DHT22;5262;59.958;17.726;2023-11-21T15:39:36;-4.70;99.90
10431;DHT22;5262;59.958;17.726;2023-11-21T15:42:02;-4.70;99.90
10431;DHT22;5262;59.958;17.726;2023-11-21T15:44:29;-4.80;99.90
10431;DHT22;5262;59.958;17.726;2023-11-21T15:46:57;-4.80;99.90
10431;DHT22;5262;59.958;17.726;2023-11-21T15:49:23;-4.90;99.90
10431;DHT22;5262;59.958;17.726;2023-11-21T15:51:49;-4.90;99.90
10431;DHT22;5262;59.958;17.726;2023-11-21T15:54:22;-4.90;99.90
10431;DHT22;5262;59.958;17.726;2023-11-21T15:56:48;-5.00;99.90